This is the latest recevied weather packets stored in our database for station/object W6ZZY. If no packets are shown the sender has not sent any weather packets the latest 10 day(s).
| Time | Temp. | Humidity | Pressure | Rain* | Wind** | Luminosity | Snow |
|---|---|---|---|---|---|---|---|
| 1777457432 | 10° C | 97% | 1021.2 hPa | 0 mm | - | - | - |
| 1777450225 | 11.11° C | 96% | 1022.1 hPa | 0 mm | - | - | - |
| 1777444230 | 11.67° C | 92% | 1022.1 hPa | 0 mm | - | - | - |
| 1777440619 | 12.78° C | 87% | 1021.8 hPa | 0 mm | - | - | - |
| 1777434625 | 13.33° C | 81% | 1021.5 hPa | 0 mm | - | - | - |
| 1777434019 | 13.33° C | 80% | 1021.5 hPa | 0 mm | - | - | - |
| 1777433435 | 13.89° C | 79% | 1021.2 hPa | 0 mm | - | - | - |
| 1777431620 | 14.44° C | 77% | 1021.1 hPa | 0 mm | - | - | - |
| 1777426233 | 18.33° C | 64% | 1021.1 hPa | 0 mm | - | - | - |
| 1777425627 | 18.33° C | 64% | 1021.2 hPa | 0 mm | - | - | - |
| 1777424436 | 19.44° C | 59% | 1021.1 hPa | 0 mm | - | - | - |
| 1777422015 | 20.56° C | 57% | 1021 hPa | 0 mm | - | - | - |
| 1777413621 | 20.56° C | 61% | 1022 hPa | 0 mm | - | - | - |
| 1777410674 | 21.11° C | 58% | 1022.2 hPa | 0 mm | - | - | - |
| 1777409422 | 21.11° C | 55% | 1022.4 hPa | 0 mm | - | - | - |
| 1777408817 | 21.67° C | 55% | 1022.5 hPa | 0 mm | - | - | - |
| 1777408253 | 21.11° C | 56% | 1022.5 hPa | 0 mm | - | - | - |
| 1777407626 | 20.56° C | 56% | 1022.6 hPa | 0 mm | - | - | - |
| 1777404620 | 20° C | 60% | 1023 hPa | 0 mm | - | - | - |
| 1777401654 | 18.33° C | 67% | 1023.2 hPa | 0 mm | - | - | - |
| 1777400423 | 17.78° C | 69% | 1023.3 hPa | 0 mm | - | - | - |
| 1777399817 | 17.22° C | 71% | 1023.3 hPa | 0 mm | - | - | - |
| 1777398062 | 16.11° C | 74% | 1023.4 hPa | 0 mm | - | - | - |
| 1777396831 | 15.56° C | 77% | 1023.3 hPa | 0 mm | - | - | - |
| 1777396226 | 15° C | 77% | 1023.2 hPa | 0 mm | - | - | - |
* Rain latest hour (hover to see other rain measurements)
** Current wind speed in m/s (hover to see current wind gust speed)